Latest Weather Observations for Cobar Airport

IDN60801

Issued at 4:35 pm EDT Thursday 23 October 2014 (issued every 30 minutes, with the page automatically refreshed every 10 minutes)

About weather observations | Map of weather stations | Latest weather observations for NSW | Other Formats
Station Details ID: 048237 Name: COBAR AIRPORT AWS Lat: -31.54 Lon: 145.80 Height: 218.0 m
Data from the previous 72 hours. | See also: Recent months for locations in New South Wales
Date/Time
EDT
Temp
°C
App
Temp
°C
Dew
Point
Rel
Hum
%
Delta-T
°C
Wind Press
QNH
hPa
Press
MSL
hPa
Rain
since 9 am
mm
Dir
 
Spd
km/h
Gust
km/h
Spd
kts
Gust
kts
23/04:30pm 34.8 30.5 1.2 12 17.1 NW 13 28 7 15 1013.8 1013.3 0.0
23/04:00pm 34.5 30.5 3.1 14 16.4 W 13 22 7 12 1014.2 1013.7 0.0
23/03:30pm 35.5 32.1 3.9 14 16.8 W 11 20 6 11 1014.4 1013.9 0.0
23/03:00pm 34.5 29.6 5.0 16 15.9 NNW 20 28 11 15 1014.8 1014.2 0.0
23/02:30pm 33.1 29.5 4.8 17 15.1 NW 13 24 7 13 1015.3 1014.7 0.0
23/02:00pm 33.5 28.6 5.1 17 15.2 W 20 28 11 15 1015.8 1015.2 0.0
23/01:30pm 32.7 29.7 6.1 19 14.4 WNW 11 20 6 11 1016.2 1015.6 0.0
23/01:00pm 32.5 28.3 5.9 19 14.4 W 17 26 9 14 1016.6 1016.0 0.0
23/12:30pm 32.1 28.7 7.7 22 13.6 WNW 15 22 8 12 1017.2 1016.6 0.0
23/12:00pm 31.4 27.1 7.8 23 13.1 W 20 26 11 14 1017.8 1017.3 0.0
23/11:30am 31.0 25.3 6.8 22 13.2 W 26 30 14 16 1018.0 1017.5 0.0
23/11:00am 30.3 26.1 8.1 25 12.3 NNW 20 28 11 15 1018.4 1017.9 0.0
23/10:30am 28.4 25.5 8.1 28 11.1 N 13 20 7 11 1018.7 1018.2 0.0
23/10:00am 27.3 23.3 8.2 30 10.4 N 19 26 10 14 1018.6 1018.1 0.0
23/09:30am 26.7 22.9 7.7 30 10.3 N 17 22 9 12 1018.7 1018.2 0.0
23/09:00am 27.0 22.4 8.0 30 10.3 N 22 30 12 16 1018.6 1018.1 0.0
23/08:30am 24.7 21.4 8.2 35 8.9 N 15 20 8 11 1018.5 1018.0 0.0
23/08:00am 23.4 20.5 8.3 38 8.1 NNE 13 20 7 11 1018.4 1017.9 0.0
23/07:30am 21.6 19.1 8.1 42 7.1 NE 11 13 6 7 1018.2 1017.7 0.0
23/07:00am 20.2 17.9 7.6 44 6.5 NNE 9 11 5 6 1018.3 1017.8 0.0
23/06:30am 20.7 17.6 7.3 42 6.9 NNE 13 17 7 9 1018.3 1017.8 0.0
23/06:00am 20.4 17.8 7.7 44 6.6 N 11 13 6 7 1018.1 1017.6 0.0
23/05:30am 19.4 17.4 7.2 45 6.3 N 7 9 4 5 1017.9 1017.4 0.0
23/05:00am 20.2 17.8 6.9 42 6.8 NNE 9 11 5 6 1017.7 1017.1 0.0
23/04:30am 20.8 18.3 6.7 40 7.2 N 9 11 5 6 1017.6 1017.0 0.0
23/04:00am 21.3 18.4 6.4 38 7.6 NNE 11 17 6 9 1017.5 1016.9 0.0
23/03:30am 21.7 18.3 6.0 36 8.0 NNE 13 17 7 9 1017.5 1016.9 0.0
23/03:00am 22.3 18.6 6.1 35 8.3 NNE 15 20 8 11 1017.7 1017.1 0.0
23/02:30am 23.1 19.7 6.0 33 8.8 N 13 17 7 9 1018.0 1017.5 0.0
23/02:00am 24.0 19.5 6.3 32 9.2 NNE 19 24 10 13 1017.9 1017.4 0.0
23/01:30am 24.1 19.9 5.9 31 9.4 NNE 17 20 9 11 1018.0 1017.5 0.0
23/01:00am 24.9 20.4 6.1 30 9.8 NNE 19 22 10 12 1018.0 1017.5 0.0
23/12:30am 24.2 21.3 6.5 32 9.2 ENE 11 13 6 7 1018.3 1017.8 0.0
23/12:00am 25.4 21.9 7.1 31 9.7 ENE 15 20 8 11 1018.5 1018.0 0.0
 
Date/Time
EDT
Temp
°C
App
Temp
°C
Dew
Point
Rel
Hum
%
Delta-T
°C
Wind Press
QNH
hPa
Press
MSL
hPa
Rain
since 9 am
mm
Dir
 
Spd
km/h
Gust
km/h
Spd
kts
Gust
kts
22/11:30pm 24.9 21.6 6.6 31 9.6 NE 13 17 7 9 1018.9 1018.4 0.0
22/11:00pm 24.7 21.5 6.9 32 9.4 NE 13 17 7 9 1018.9 1018.4 0.0
22/10:30pm 26.2 24.3 6.8 29 10.3 NNE 6 9 3 5 1018.8 1018.3 0.0
22/10:00pm 26.8 23.6 6.8 28 10.6 NNW 13 19 7 10 1018.3 1017.8 0.0
22/09:30pm 26.4 24.5 7.4 30 10.2 NNE 7 9 4 5 1017.7 1017.1 0.0
22/09:00pm 26.8 24.5 7.3 29 10.4 ENE 9 13 5 7 1017.3 1016.7 0.0
22/08:30pm 27.4 24.7 7.3 28 10.8 SSE 11 19 6 10 1017.4 1016.8 0.0
22/08:00pm 27.4 23.3 7.8 29 10.6 SSE 19 26 10 14 1017.1 1016.5 0.0
22/07:30pm 28.2 22.7 7.4 27 11.3 S 26 33 14 18 1017.5 1016.9 0.0
22/07:00pm 28.7 19.7 7.3 26 11.6 SSW 44 63 24 34 1017.3 1016.7 0.0
22/06:50pm 30.0 22.1 6.0 22 12.8 SSW 37 61 20 33 1017.1 1016.5 0.0
22/06:41pm 31.7 25.0 3.7 17 14.5 WSW 28 37 15 20 1016.7 1016.1 0.0
22/06:30pm 32.7 29.3 1.7 14 15.7 W 9 9 5 5 1016.3 1015.7 0.0
22/06:00pm 33.1 28.6 2.0 14 15.8 WNW 15 20 8 11 1016.2 1015.6 0.0
22/05:30pm 33.7 30.4 2.5 14 16.1 NNW 9 17 5 9 1015.9 1015.3 0.0
22/05:00pm 34.8 31.1 2.3 13 16.8 WSW 11 22 6 12 1016.0 1015.4 0.0
22/04:30pm 34.1 29.7 2.8 14 16.2 NNW 15 26 8 14 1016.1 1015.5 0.0
22/04:00pm 34.3 30.3 4.9 16 15.8 N 15 28 8 15 1016.4 1015.8 0.0
22/03:30pm 32.9 30.7 5.5 18 14.7 NW 6 15 3 8 1017.1 1016.5 0.0
22/03:00pm 32.6 28.2 6.7 20 14.2 N 19 26 10 14 1017.7 1017.1 0.0
22/02:30pm 32.3 28.3 6.5 20 14.1 N 17 41 9 22 1018.2 1017.7 0.0
22/02:00pm 33.1 29.8 7.9 21 14.1 NNW 15 28 8 15 1018.8 1018.3 0.0
22/01:30pm 31.7 27.4 8.0 23 13.2 NNW 20 33 11 18 1019.4 1018.9 0.0
22/01:00pm 32.1 27.8 7.7 22 13.5 NNW 20 33 11 18 1019.9 1019.3 0.0
22/12:30pm 30.4 26.9 8.7 26 12.1 N 17 32 9 17 1020.4 1019.8 0.0
22/12:00pm 28.7 25.2 8.9 29 11.0 N 17 22 9 12 1021.2 1020.6 0.0
22/11:30am 27.4 24.4 9.3 32 10.1 NNE 15 19 8 10 1021.9 1021.4 0.0
22/11:00am 26.4 22.9 8.8 33 9.6 NE 17 35 9 19 1021.9 1021.4 0.0
22/10:30am 24.8 20.8 8.3 35 8.9 NE 19 28 10 15 1022.3 1021.8 0.0
22/10:00am 24.1 20.1 8.9 38 8.2 NE 20 32 11 17 1022.2 1021.7 0.0
22/09:30am 22.9 18.0 8.6 40 7.7 ENE 24 35 13 19 1022.1 1021.6 0.0
22/09:00am 21.3 16.3 8.2 43 6.9 ENE 24 35 13 19 1022.0 1021.5 0.0
22/08:30am 19.9 14.9 7.9 46 6.3 ENE 24 39 13 21 1021.9 1021.4 0.0
22/08:00am 18.8 14.1 7.6 48 5.7 ENE 22 35 12 19 1021.8 1021.3 0.0
22/07:30am 18.3 13.9 7.4 49 5.6 ENE 20 32 11 17 1021.8 1021.3 0.0
22/07:00am 17.9 13.5 7.6 51 5.2 ENE 20 26 11 14 1021.7 1021.1 0.0
22/06:30am 18.1 13.9 7.5 50 5.4 ENE 19 26 10 14 1021.5 1020.9 0.0
22/06:00am 18.4 14.2 7.5 49 5.6 ENE 19 26 10 14 1021.4 1020.8 0.0
22/05:30am 18.9 14.8 7.7 48 5.8 ENE 19 26 10 14 1021.2 1020.6 0.0
22/05:00am 19.4 15.3 7.8 47 6.0 ENE 19 26 10 14 1021.0 1020.4 0.0
22/04:30am 20.0 15.9 7.7 45 6.4 E 19 26 10 14 1021.0 1020.4 0.0
22/04:00am 20.8 16.8 8.1 44 6.7 ENE 19 28 10 15 1020.9 1020.3 0.0
22/03:30am 21.5 16.9 8.1 42 7.1 ENE 22 30 12 16 1020.7 1020.1 0.0
22/03:00am 22.0 17.8 8.2 41 7.3 ENE 20 33 11 18 1020.9 1020.3 0.0
22/02:30am 22.5 18.3 8.2 40 7.6 E 20 28 11 15 1021.2 1020.6 0.0
22/02:00am 23.5 19.4 8.8 39 7.9 E 20 32 11 17 1021.4 1020.8 0.0
22/01:30am 24.5 21.0 8.9 37 8.5 E 17 24 9 13 1021.6 1021.0 0.0
22/01:00am 25.6 21.8 9.0 35 9.1 ENE 19 26 10 14 1021.6 1021.0 0.0
22/12:30am 26.2 22.2 9.1 34 9.4 E 20 28 11 15 1021.9 1021.4 0.0
22/12:00am 26.8 22.7 8.7 32 9.9 E 20 30 11 16 1022.1 1021.6 0.0
 
Date/Time
EDT
Temp
°C
App
Temp
°C
Dew
Point
Rel
Hum
%
Delta-T
°C
Wind Press
QNH
hPa
Press
MSL
hPa
Rain
since 9 am
mm
Dir
 
Spd
km/h
Gust
km/h
Spd
kts
Gust
kts
21/11:30pm 27.0 23.3 8.0 30 10.3 E 17 22 9 12 1021.9 1021.4 0.0
21/11:00pm 27.7 24.4 8.1 29 10.7 ENE 15 22 8 12 1021.9 1021.4 0.0
21/10:30pm 28.1 24.4 7.9 28 11.0 ENE 17 24 9 13 1021.5 1020.9 0.0
21/10:00pm 28.3 24.5 7.5 27 11.3 E 17 24 9 13 1021.4 1020.8 0.0
21/09:30pm 28.8 25.0 7.4 26 11.6 E 17 24 9 13 1021.1 1020.5 0.0
21/09:00pm 29.1 25.2 5.2 22 12.5 E 15 19 8 10 1020.8 1020.2 0.0
21/08:30pm 29.1 25.8 4.6 21 12.7 E 11 13 6 7 1020.5 1019.9 0.0
21/08:00pm 29.4 26.3 3.4 19 13.2 E 9 15 5 8 1020.2 1019.6 0.0
21/07:30pm 31.0 29.5 3.1 17 14.3 CALM 0 0 0 0 1020.0 1019.4 0.0
21/07:00pm 33.2 29.8 2.1 14 15.8 WNW 9 17 5 9 1019.7 1019.1 0.0
21/06:30pm 33.7 29.9 1.5 13 16.3 SSW 11 17 6 9 1019.6 1019.0 0.0
21/06:00pm 33.9 31.2 2.7 14 16.1 ESE 6 13 3 7 1019.7 1019.1 0.0
21/05:30pm 34.4 30.4 3.1 14 16.3 SE 13 19 7 10 1019.7 1019.1 0.0
21/05:00pm 34.4 31.2 3.1 14 16.3 N 9 15 5 8 1019.7 1019.1 0.0
21/04:30pm 33.9 31.2 3.6 15 15.9 SSW 7 17 4 9 1019.9 1019.3 0.0
21/04:00pm 33.9 28.9 4.6 16 15.6 N 20 30 11 16 1020.0 1019.4 0.0
21/03:30pm 33.8 31.4 5.4 17 15.3 NE 7 17 4 9 1020.5 1019.9 0.0
21/03:00pm 33.3 29.9 5.8 18 14.9 W 13 20 7 11 1021.0 1020.4 0.0
21/02:30pm 33.1 30.0 7.1 20 14.4 NW 13 22 7 12 1021.5 1020.9 0.0
21/02:00pm 32.2 29.1 7.1 21 13.8 N 13 24 7 13 1022.1 1021.6 0.0
21/01:30pm 31.7 28.0 8.0 23 13.2 NNE 17 24 9 13 1022.6 1022.1 0.0
21/01:00pm 30.5 26.5 8.3 25 12.3 NNE 19 32 10 17 1023.2 1022.7 0.0
21/12:30pm 29.8 25.7 8.8 27 11.7 ENE 20 26 11 14 1023.6 1023.1 0.0
21/12:00pm 28.1 24.1 8.4 29 10.8 NNE 19 30 10 16 1024.0 1023.5 0.0
21/11:30am 27.0 23.2 8.9 32 10.0 ENE 19 26 10 14 1024.6 1024.0 0.0
21/11:00am 26.3 22.3 9.2 34 9.4 NE 20 28 11 15 1024.9 1024.3 0.0
21/10:30am 24.7 19.9 9.0 37 8.6 NE 24 35 13 19 1025.1 1024.5 0.0
21/10:00am 23.9 19.3 9.5 40 7.9 NE 24 33 13 18 1025.2 1024.6 0.0
21/09:30am 22.1 17.4 9.3 44 6.9 ENE 24 32 13 17 1025.2 1024.6 0.0
21/09:00am 21.0 15.7 9.9 49 6.0 ENE 28 39 15 21 1025.1 1024.5 0.0
21/08:30am 19.6 15.0 9.5 52 5.4 ENE 24 39 13 21 1025.0 1024.4 0.0
21/08:00am 18.8 14.6 9.6 55 4.9 E 22 33 12 18 1024.9 1024.3 0.0
21/07:30am 18.0 14.1 9.6 58 4.5 E 20 30 11 16 1024.7 1024.1 0.0
21/07:00am 17.5 14.2 9.7 60 4.1 E 17 24 9 13 1024.2 1023.7 0.0
21/06:30am 17.4 14.4 9.3 59 4.3 E 15 20 8 11 1023.9 1023.4 0.0
21/06:00am 17.8 14.3 8.9 56 4.6 E 17 26 9 14 1023.5 1023.0 0.0
21/05:30am 18.4 14.5 8.7 53 5.1 E 19 30 10 16 1023.1 1022.6 0.0
21/05:00am 18.9 14.4 8.6 51 5.4 E 22 35 12 19 1022.7 1022.2 0.0
21/04:30am 19.5 15.3 8.2 48 5.9 E 20 28 11 15 1022.6 1022.1 0.0
21/04:00am 20.1 15.9 8.4 47 6.1 E 20 30 11 16 1022.4 1021.9 0.0
21/03:30am 20.7 17.5 8.4 45 6.5 E 15 22 8 12 1022.4 1021.9 0.0
21/03:00am 21.3 18.0 7.9 42 7.0 ESE 15 20 8 11 1022.4 1021.9 0.0
21/02:30am 22.2 18.6 6.8 37 8.0 ESE 15 19 8 10 1022.4 1021.9 0.0
21/02:00am 22.7 19.5 5.2 32 8.8 ESE 11 17 6 9 1022.4 1021.9 0.0
21/01:30am 23.8 20.0 3.7 27 9.9 ESE 13 17 7 9 1022.6 1022.1 0.0
21/01:00am 25.0 20.9 2.4 23 10.9 SE 13 24 7 13 1022.3 1021.8 0.0
21/12:30am 22.8 19.8 2.3 26 9.8 ENE 7 9 4 5 1021.5 1020.9 0.0
21/12:00am 23.1 19.7 2.0 25 10.0 ENE 9 11 5 6 1021.6 1021.0 0.0
 
Date/Time
EDT
Temp
°C
App
Temp
°C
Dew
Point
Rel
Hum
%
Delta-T
°C
Wind Press
QNH
hPa
Press
MSL
hPa
Rain
since 9 am
mm
Dir
 
Spd
km/h
Gust
km/h
Spd
kts
Gust
kts
20/11:30pm 23.6 19.7 1.3 23 10.5 NE 11 13 6 7 1021.7 1021.1 0.0
20/11:00pm 24.9 21.4 1.1 21 11.2 ENE 9 15 5 8 1021.8 1021.3 0.0
20/10:30pm 27.1 22.3 0.0 17 12.8 E 15 19 8 10 1021.9 1021.4 0.0
20/10:00pm 27.3 22.7 -0.7 16 13.0 ESE 13 15 7 8 1021.8 1021.3 0.0
20/09:30pm 27.7 23.2 -0.4 16 13.2 SE 13 17 7 9 1021.6 1021.0 0.0
20/09:00pm 25.9 22.8 1.2 20 11.8 SE 7 15 4 8 1021.2 1020.6 0.0
20/08:30pm 25.8 23.4 -0.3 18 12.1 ESE 2 7 1 4 1020.9 1020.3 0.0
20/08:00pm 27.6 25.1 -1.3 15 13.3 ESE 2 7 1 4 1020.4 1019.8 0.0
20/07:30pm 30.5 27.0 -1.0 13 15.0 E 7 9 4 5 1020.2 1019.6 0.0
20/07:00pm 33.2 29.2 -2.5 10 16.8 SE 9 13 5 7 1020.0 1019.4 0.0
20/06:30pm 33.7 29.7 -2.1 10 17.1 ESE 9 19 5 10 1019.9 1019.3 0.0
20/06:00pm 34.1 28.5 -3.2 9 17.5 S 17 24 9 13 1019.8 1019.2 0.0
20/05:30pm 34.5 29.8 -1.5 10 17.5 S 13 20 7 11 1019.8 1019.2 0.0
20/05:00pm 34.1 30.5 -1.8 10 17.2 ESE 7 15 4 8 1019.9 1019.3 0.0

Other Formats:

Comma delimited format used in spreadsheet applications
http://www.bom.gov.au/fwo/IDN60801/IDN60801.94710.axf

JavaScript Object Notation format (JSON) in row-major order
http://www.bom.gov.au/fwo/IDN60801/IDN60801.94710.json